sensor_id;sensor_type;location;lat;lon;timestamp;P1;durP1;ratioP1;P2;durP2;ratioP2
27209;SDS011;14721;42.668;23.386;2022-12-07T00:01:21;30.27;;;12.57;;
27209;SDS011;14721;42.668;23.386;2022-12-07T00:03:49;26.03;;;11.07;;
27209;SDS011;14721;42.668;23.386;2022-12-07T00:06:17;26.23;;;11.17;;
27209;SDS011;14721;42.668;23.386;2022-12-07T00:08:43;35.73;;;12.93;;
27209;SDS011;14721;42.668;23.386;2022-12-07T00:11:14;26.10;;;12.57;;
27209;SDS011;14721;42.668;23.386;2022-12-07T00:13:42;33.17;;;13.00;;
27209;SDS011;14721;42.668;23.386;2022-12-07T00:18:37;27.43;;;12.67;;
27209;SDS011;14721;42.668;23.386;2022-12-07T00:21:05;28.07;;;12.13;;
27209;SDS011;14721;42.668;23.386;2022-12-07T00:23:34;25.53;;;11.70;;
27209;SDS011;14721;42.668;23.386;2022-12-07T00:26:03;28.37;;;11.27;;
27209;SDS011;14721;42.668;23.386;2022-12-07T00:28:34;28.40;;;12.87;;
27209;SDS011;14721;42.668;23.386;2022-12-07T00:33:34;24.43;;;11.83;;
27209;SDS011;14721;42.668;23.386;2022-12-07T00:36:01;30.50;;;12.30;;
27209;SDS011;14721;42.668;23.386;2022-12-07T00:38:30;24.03;;;11.13;;
27209;SDS011;14721;42.668;23.386;2022-12-07T00:40:58;28.57;;;11.70;;
27209;SDS011;14721;42.668;23.386;2022-12-07T00:43:26;25.40;;;12.50;;
27209;SDS011;14721;42.668;23.386;2022-12-07T00:45:52;26.90;;;12.10;;
27209;SDS011;14721;42.668;23.386;2022-12-07T00:48:20;21.67;;;11.73;;
27209;SDS011;14721;42.668;23.386;2022-12-07T00:50:46;23.77;;;12.00;;
27209;SDS011;14721;42.668;23.386;2022-12-07T00:53:13;33.07;;;12.67;;
27209;SDS011;14721;42.668;23.386;2022-12-07T00:55:40;29.23;;;11.67;;
27209;SDS011;14721;42.668;23.386;2022-12-07T00:58:06;24.60;;;11.60;;
27209;SDS011;14721;42.668;23.386;2022-12-07T01:00:31;25.70;;;11.80;;
27209;SDS011;14721;42.668;23.386;2022-12-07T01:02:58;23.33;;;11.30;;
27209;SDS011;14721;42.668;23.386;2022-12-07T01:05:23;27.57;;;12.60;;
27209;SDS011;14721;42.668;23.386;2022-12-07T01:07:49;30.67;;;12.97;;
27209;SDS011;14721;42.668;23.386;2022-12-07T01:10:14;27.33;;;10.47;;
27209;SDS011;14721;42.668;23.386;2022-12-07T01:12:40;30.00;;;12.33;;
27209;SDS011;14721;42.668;23.386;2022-12-07T01:15:12;25.53;;;12.43;;
27209;SDS011;14721;42.668;23.386;2022-12-07T01:20:06;19.93;;;10.37;;
27209;SDS011;14721;42.668;23.386;2022-12-07T01:22:40;24.03;;;11.37;;
27209;SDS011;14721;42.668;23.386;2022-12-07T01:27:38;31.93;;;10.77;;
27209;SDS011;14721;42.668;23.386;2022-12-07T01:30:04;33.30;;;11.03;;
27209;SDS011;14721;42.668;23.386;2022-12-07T01:32:37;29.43;;;12.33;;
27209;SDS011;14721;42.668;23.386;2022-12-07T01:35:02;26.27;;;12.33;;
27209;SDS011;14721;42.668;23.386;2022-12-07T01:37:28;30.43;;;11.93;;
27209;SDS011;14721;42.668;23.386;2022-12-07T01:39:59;29.33;;;11.50;;
27209;SDS011;14721;42.668;23.386;2022-12-07T01:47:48;32.57;;;12.13;;
27209;SDS011;14721;42.668;23.386;2022-12-07T01:50:18;22.80;;;10.77;;
27209;SDS011;14721;42.668;23.386;2022-12-07T01:55:16;27.17;;;11.20;;
27209;SDS011;14721;42.668;23.386;2022-12-07T01:57:47;28.90;;;11.10;;
27209;SDS011;14721;42.668;23.386;2022-12-07T02:00:16;23.70;;;11.67;;
27209;SDS011;14721;42.668;23.386;2022-12-07T02:02:49;24.10;;;11.27;;
27209;SDS011;14721;42.668;23.386;2022-12-07T02:05:21;22.83;;;11.27;;
27209;SDS011;14721;42.668;23.386;2022-12-07T02:07:49;25.13;;;10.77;;
27209;SDS011;14721;42.668;23.386;2022-12-07T02:10:22;26.53;;;12.03;;
27209;SDS011;14721;42.668;23.386;2022-12-07T02:12:55;23.50;;;10.73;;
27209;SDS011;14721;42.668;23.386;2022-12-07T02:15:29;31.87;;;12.70;;
27209;SDS011;14721;42.668;23.386;2022-12-07T02:18:09;25.03;;;11.70;;
27209;SDS011;14721;42.668;23.386;2022-12-07T02:23:54;27.20;;;10.37;;
27209;SDS011;14721;42.668;23.386;2022-12-07T02:29:13;27.90;;;11.67;;
27209;SDS011;14721;42.668;23.386;2022-12-07T02:31:53;27.80;;;11.73;;
27209;SDS011;14721;42.668;23.386;2022-12-07T02:35:08;26.53;;;11.17;;
27209;SDS011;14721;42.668;23.386;2022-12-07T02:40:04;23.50;;;10.93;;
27209;SDS011;14721;42.668;23.386;2022-12-07T02:43:00;27.47;;;11.87;;
27209;SDS011;14721;42.668;23.386;2022-12-07T02:45:29;30.70;;;11.67;;
27209;SDS011;14721;42.668;23.386;2022-12-07T02:48:00;28.40;;;10.93;;
27209;SDS011;14721;42.668;23.386;2022-12-07T02:50:36;27.80;;;12.60;;
27209;SDS011;14721;42.668;23.386;2022-12-07T02:53:03;27.90;;;10.87;;
27209;SDS011;14721;42.668;23.386;2022-12-07T02:55:32;23.17;;;10.50;;
27209;SDS011;14721;42.668;23.386;2022-12-07T03:03:36;26.60;;;11.40;;
27209;SDS011;14721;42.668;23.386;2022-12-07T03:11:38;35.87;;;10.13;;
27209;SDS011;14721;42.668;23.386;2022-12-07T03:14:34;27.90;;;11.20;;
27209;SDS011;14721;42.668;23.386;2022-12-07T03:17:04;27.83;;;11.97;;
27209;SDS011;14721;42.668;23.386;2022-12-07T03:19:38;24.20;;;10.33;;
27209;SDS011;14721;42.668;23.386;2022-12-07T03:22:12;23.30;;;10.83;;
27209;SDS011;14721;42.668;23.386;2022-12-07T03:24:40;33.47;;;11.47;;
27209;SDS011;14721;42.668;23.386;2022-12-07T03:27:11;30.43;;;11.33;;
27209;SDS011;14721;42.668;23.386;2022-12-07T03:29:44;37.50;;;13.30;;
27209;SDS011;14721;42.668;23.386;2022-12-07T03:35:01;32.07;;;12.17;;
27209;SDS011;14721;42.668;23.386;2022-12-07T03:37:34;24.90;;;10.97;;
27209;SDS011;14721;42.668;23.386;2022-12-07T03:42:33;32.50;;;12.47;;
27209;SDS011;14721;42.668;23.386;2022-12-07T03:44:59;30.73;;;12.00;;
27209;SDS011;14721;42.668;23.386;2022-12-07T03:47:35;28.83;;;11.37;;
27209;SDS011;14721;42.668;23.386;2022-12-07T03:52:53;26.97;;;12.70;;
27209;SDS011;14721;42.668;23.386;2022-12-07T03:57:56;25.43;;;10.57;;
27209;SDS011;14721;42.668;23.386;2022-12-07T04:00:25;31.63;;;12.37;;
27209;SDS011;14721;42.668;23.386;2022-12-07T04:02:52;26.20;;;12.00;;
27209;SDS011;14721;42.668;23.386;2022-12-07T04:05:19;26.23;;;11.37;;
27209;SDS011;14721;42.668;23.386;2022-12-07T04:07:45;25.07;;;11.13;;
27209;SDS011;14721;42.668;23.386;2022-12-07T04:10:11;27.87;;;12.07;;
27209;SDS011;14721;42.668;23.386;2022-12-07T04:12:38;29.40;;;12.27;;
27209;SDS011;14721;42.668;23.386;2022-12-07T04:15:04;31.67;;;12.87;;
27209;SDS011;14721;42.668;23.386;2022-12-07T04:17:31;31.83;;;12.63;;
27209;SDS011;14721;42.668;23.386;2022-12-07T04:19:56;27.13;;;12.50;;
27209;SDS011;14721;42.668;23.386;2022-12-07T04:22:22;33.23;;;13.03;;
27209;SDS011;14721;42.668;23.386;2022-12-07T04:24:48;36.40;;;11.37;;
27209;SDS011;14721;42.668;23.386;2022-12-07T04:27:13;25.03;;;11.67;;
27209;SDS011;14721;42.668;23.386;2022-12-07T04:29:39;24.33;;;12.17;;
27209;SDS011;14721;42.668;23.386;2022-12-07T04:32:04;30.53;;;13.37;;
27209;SDS011;14721;42.668;23.386;2022-12-07T04:34:30;24.27;;;11.83;;
27209;SDS011;14721;42.668;23.386;2022-12-07T04:36:55;30.33;;;13.33;;
27209;SDS011;14721;42.668;23.386;2022-12-07T04:41:54;30.83;;;12.60;;
27209;SDS011;14721;42.668;23.386;2022-12-07T04:44:21;37.80;;;13.50;;
27209;SDS011;14721;42.668;23.386;2022-12-07T04:46:49;39.50;;;13.40;;
27209;SDS011;14721;42.668;23.386;2022-12-07T04:49:15;30.70;;;12.40;;
27209;SDS011;14721;42.668;23.386;2022-12-07T04:51:43;37.47;;;14.23;;
27209;SDS011;14721;42.668;23.386;2022-12-07T04:54:09;32.70;;;14.53;;
27209;SDS011;14721;42.668;23.386;2022-12-07T04:56:37;38.67;;;14.23;;
27209;SDS011;14721;42.668;23.386;2022-12-07T04:59:03;36.70;;;15.77;;
27209;SDS011;14721;42.668;23.386;2022-12-07T05:01:29;40.60;;;16.47;;
27209;SDS011;14721;42.668;23.386;2022-12-07T05:03:55;40.07;;;15.37;;
27209;SDS011;14721;42.668;23.386;2022-12-07T05:06:21;34.43;;;16.07;;
27209;SDS011;14721;42.668;23.386;2022-12-07T05:08:46;37.37;;;15.17;;
27209;SDS011;14721;42.668;23.386;2022-12-07T05:11:13;29.40;;;13.47;;
27209;SDS011;14721;42.668;23.386;2022-12-07T05:13:59;34.00;;;14.23;;
27209;SDS011;14721;42.668;23.386;2022-12-07T05:16:25;33.43;;;15.50;;
27209;SDS011;14721;42.668;23.386;2022-12-07T05:18:52;36.27;;;15.30;;
27209;SDS011;14721;42.668;23.386;2022-12-07T05:21:17;41.67;;;15.97;;
27209;SDS011;14721;42.668;23.386;2022-12-07T05:23:45;40.40;;;15.80;;
27209;SDS011;14721;42.668;23.386;2022-12-07T05:26:11;40.43;;;15.60;;
27209;SDS011;14721;42.668;23.386;2022-12-07T05:28:38;45.43;;;15.70;;
27209;SDS011;14721;42.668;23.386;2022-12-07T05:31:06;37.43;;;15.47;;
27209;SDS011;14721;42.668;23.386;2022-12-07T05:33:32;34.70;;;15.87;;
27209;SDS011;14721;42.668;23.386;2022-12-07T05:35:58;35.03;;;16.03;;
27209;SDS011;14721;42.668;23.386;2022-12-07T05:38:24;41.30;;;17.13;;
27209;SDS011;14721;42.668;23.386;2022-12-07T05:40:50;33.67;;;15.53;;
27209;SDS011;14721;42.668;23.386;2022-12-07T05:43:17;42.43;;;15.40;;
27209;SDS011;14721;42.668;23.386;2022-12-07T05:45:43;40.97;;;15.67;;
27209;SDS011;14721;42.668;23.386;2022-12-07T05:48:08;41.03;;;17.07;;
27209;SDS011;14721;42.668;23.386;2022-12-07T05:50:34;42.63;;;16.03;;
27209;SDS011;14721;42.668;23.386;2022-12-07T05:53:00;34.20;;;15.70;;
27209;SDS011;14721;42.668;23.386;2022-12-07T05:55:28;36.93;;;16.57;;
27209;SDS011;14721;42.668;23.386;2022-12-07T05:57:54;39.77;;;16.37;;
27209;SDS011;14721;42.668;23.386;2022-12-07T06:00:38;51.23;;;21.90;;
27209;SDS011;14721;42.668;23.386;2022-12-07T06:03:03;43.27;;;18.00;;
27209;SDS011;14721;42.668;23.386;2022-12-07T06:05:29;47.00;;;19.57;;
27209;SDS011;14721;42.668;23.386;2022-12-07T06:07:54;36.97;;;17.30;;
27209;SDS011;14721;42.668;23.386;2022-12-07T06:10:21;42.23;;;16.20;;
27209;SDS011;14721;42.668;23.386;2022-12-07T06:12:46;64.73;;;24.87;;
27209;SDS011;14721;42.668;23.386;2022-12-07T06:15:12;57.10;;;21.83;;
27209;SDS011;14721;42.668;23.386;2022-12-07T06:17:40;55.33;;;20.27;;
27209;SDS011;14721;42.668;23.386;2022-12-07T06:20:06;49.23;;;21.57;;
27209;SDS011;14721;42.668;23.386;2022-12-07T06:22:33;49.33;;;21.33;;
27209;SDS011;14721;42.668;23.386;2022-12-07T06:24:58;42.90;;;18.93;;
27209;SDS011;14721;42.668;23.386;2022-12-07T06:27:24;46.33;;;18.77;;
27209;SDS011;14721;42.668;23.386;2022-12-07T06:29:49;58.80;;;22.03;;
27209;SDS011;14721;42.668;23.386;2022-12-07T06:32:16;45.63;;;18.63;;
27209;SDS011;14721;42.668;23.386;2022-12-07T06:34:42;47.90;;;19.43;;
27209;SDS011;14721;42.668;23.386;2022-12-07T06:37:08;42.17;;;18.40;;
27209;SDS011;14721;42.668;23.386;2022-12-07T06:39:33;50.33;;;20.43;;
27209;SDS011;14721;42.668;23.386;2022-12-07T06:41:59;49.73;;;20.87;;
27209;SDS011;14721;42.668;23.386;2022-12-07T06:44:25;48.63;;;18.63;;
27209;SDS011;14721;42.668;23.386;2022-12-07T06:46:51;51.57;;;20.03;;
27209;SDS011;14721;42.668;23.386;2022-12-07T06:49:17;49.37;;;22.93;;
27209;SDS011;14721;42.668;23.386;2022-12-07T06:51:42;49.47;;;20.53;;
27209;SDS011;14721;42.668;23.386;2022-12-07T06:54:16;44.07;;;20.90;;
27209;SDS011;14721;42.668;23.386;2022-12-07T06:56:42;49.83;;;21.83;;
27209;SDS011;14721;42.668;23.386;2022-12-07T06:59:09;43.53;;;20.33;;
27209;SDS011;14721;42.668;23.386;2022-12-07T07:01:35;58.33;;;21.47;;
27209;SDS011;14721;42.668;23.386;2022-12-07T07:04:01;49.67;;;20.20;;
27209;SDS011;14721;42.668;23.386;2022-12-07T07:06:26;43.53;;;17.83;;
27209;SDS011;14721;42.668;23.386;2022-12-07T07:08:52;45.53;;;20.47;;
27209;SDS011;14721;42.668;23.386;2022-12-07T07:11:18;48.33;;;21.03;;
27209;SDS011;14721;42.668;23.386;2022-12-07T07:13:44;46.23;;;18.80;;
27209;SDS011;14721;42.668;23.386;2022-12-07T07:16:10;37.60;;;16.67;;
27209;SDS011;14721;42.668;23.386;2022-12-07T07:18:36;41.13;;;16.03;;
27209;SDS011;14721;42.668;23.386;2022-12-07T07:21:01;35.17;;;15.93;;
27209;SDS011;14721;42.668;23.386;2022-12-07T07:23:28;36.60;;;15.87;;
27209;SDS011;14721;42.668;23.386;2022-12-07T07:25:55;33.97;;;14.53;;
27209;SDS011;14721;42.668;23.386;2022-12-07T07:28:21;39.33;;;14.17;;
27209;SDS011;14721;42.668;23.386;2022-12-07T07:30:47;50.63;;;21.77;;
27209;SDS011;14721;42.668;23.386;2022-12-07T07:33:12;45.17;;;22.93;;
27209;SDS011;14721;42.668;23.386;2022-12-07T07:35:38;58.67;;;27.33;;
27209;SDS011;14721;42.668;23.386;2022-12-07T07:38:04;55.17;;;23.87;;
27209;SDS011;14721;42.668;23.386;2022-12-07T07:40:37;67.83;;;30.57;;
27209;SDS011;14721;42.668;23.386;2022-12-07T07:43:04;56.80;;;27.43;;
27209;SDS011;14721;42.668;23.386;2022-12-07T07:45:30;77.87;;;39.80;;
27209;SDS011;14721;42.668;23.386;2022-12-07T07:47:56;86.40;;;40.10;;
27209;SDS011;14721;42.668;23.386;2022-12-07T07:50:21;66.57;;;32.27;;
27209;SDS011;14721;42.668;23.386;2022-12-07T07:52:47;60.37;;;27.17;;
27209;SDS011;14721;42.668;23.386;2022-12-07T07:55:12;51.77;;;22.73;;
27209;SDS011;14721;42.668;23.386;2022-12-07T07:57:38;44.53;;;21.23;;
27209;SDS011;14721;42.668;23.386;2022-12-07T08:00:06;46.73;;;21.63;;
27209;SDS011;14721;42.668;23.386;2022-12-07T08:02:34;52.23;;;18.47;;
27209;SDS011;14721;42.668;23.386;2022-12-07T08:04:59;40.53;;;18.10;;
27209;SDS011;14721;42.668;23.386;2022-12-07T08:07:26;39.10;;;16.43;;
27209;SDS011;14721;42.668;23.386;2022-12-07T08:09:53;39.77;;;16.67;;
27209;SDS011;14721;42.668;23.386;2022-12-07T08:12:19;42.30;;;15.70;;
27209;SDS011;14721;42.668;23.386;2022-12-07T08:14:45;35.90;;;16.40;;
27209;SDS011;14721;42.668;23.386;2022-12-07T08:17:11;38.77;;;16.90;;
27209;SDS011;14721;42.668;23.386;2022-12-07T08:19:37;36.30;;;15.87;;
27209;SDS011;14721;42.668;23.386;2022-12-07T08:22:03;38.57;;;17.50;;
27209;SDS011;14721;42.668;23.386;2022-12-07T08:24:32;43.53;;;16.93;;
27209;SDS011;14721;42.668;23.386;2022-12-07T08:26:58;36.60;;;17.73;;
27209;SDS011;14721;42.668;23.386;2022-12-07T08:29:25;41.50;;;18.67;;
27209;SDS011;14721;42.668;23.386;2022-12-07T08:31:52;36.97;;;16.67;;
27209;SDS011;14721;42.668;23.386;2022-12-07T08:34:18;34.33;;;17.37;;
27209;SDS011;14721;42.668;23.386;2022-12-07T08:36:44;41.40;;;18.10;;
27209;SDS011;14721;42.668;23.386;2022-12-07T08:39:09;41.20;;;17.33;;
27209;SDS011;14721;42.668;23.386;2022-12-07T08:41:36;35.47;;;16.63;;
27209;SDS011;14721;42.668;23.386;2022-12-07T08:44:02;37.73;;;17.93;;
27209;SDS011;14721;42.668;23.386;2022-12-07T08:46:31;38.30;;;17.07;;
27209;SDS011;14721;42.668;23.386;2022-12-07T08:49:06;39.07;;;18.37;;
27209;SDS011;14721;42.668;23.386;2022-12-07T08:51:37;41.07;;;17.33;;
27209;SDS011;14721;42.668;23.386;2022-12-07T08:54:04;36.47;;;17.20;;
27209;SDS011;14721;42.668;23.386;2022-12-07T08:56:33;37.70;;;17.53;;
27209;SDS011;14721;42.668;23.386;2022-12-07T08:58:59;38.47;;;15.23;;
27209;SDS011;14721;42.668;23.386;2022-12-07T09:01:25;33.60;;;15.70;;
27209;SDS011;14721;42.668;23.386;2022-12-07T09:03:52;32.63;;;15.83;;
27209;SDS011;14721;42.668;23.386;2022-12-07T09:06:18;39.60;;;17.00;;
27209;SDS011;14721;42.668;23.386;2022-12-07T09:08:46;35.47;;;15.73;;
27209;SDS011;14721;42.668;23.386;2022-12-07T09:11:14;30.23;;;15.43;;
27209;SDS011;14721;42.668;23.386;2022-12-07T09:13:40;37.07;;;18.53;;
27209;SDS011;14721;42.668;23.386;2022-12-07T09:16:06;37.80;;;17.30;;
27209;SDS011;14721;42.668;23.386;2022-12-07T09:18:32;38.63;;;16.30;;
27209;SDS011;14721;42.668;23.386;2022-12-07T09:20:58;43.90;;;17.67;;
27209;SDS011;14721;42.668;23.386;2022-12-07T09:23:25;35.10;;;18.03;;
27209;SDS011;14721;42.668;23.386;2022-12-07T09:25:50;40.67;;;19.17;;
27209;SDS011;14721;42.668;23.386;2022-12-07T09:28:16;41.00;;;16.63;;
27209;SDS011;14721;42.668;23.386;2022-12-07T09:30:45;33.53;;;18.27;;
27209;SDS011;14721;42.668;23.386;2022-12-07T09:33:12;40.73;;;16.90;;
27209;SDS011;14721;42.668;23.386;2022-12-07T09:35:37;38.70;;;17.67;;
27209;SDS011;14721;42.668;23.386;2022-12-07T09:38:03;42.67;;;17.70;;
27209;SDS011;14721;42.668;23.386;2022-12-07T09:40:29;37.37;;;17.13;;
27209;SDS011;14721;42.668;23.386;2022-12-07T09:42:55;38.13;;;16.30;;
27209;SDS011;14721;42.668;23.386;2022-12-07T09:45:26;31.30;;;16.43;;
27209;SDS011;14721;42.668;23.386;2022-12-07T09:47:58;31.03;;;16.07;;
27209;SDS011;14721;42.668;23.386;2022-12-07T09:50:27;31.03;;;15.10;;
27209;SDS011;14721;42.668;23.386;2022-12-07T09:52:54;33.87;;;17.00;;
27209;SDS011;14721;42.668;23.386;2022-12-07T09:55:41;33.63;;;15.90;;
27209;SDS011;14721;42.668;23.386;2022-12-07T09:58:13;37.20;;;16.27;;
27209;SDS011;14721;42.668;23.386;2022-12-07T10:00:53;34.13;;;16.33;;
27209;SDS011;14721;42.668;23.386;2022-12-07T10:03:22;44.20;;;19.27;;
27209;SDS011;14721;42.668;23.386;2022-12-07T10:05:51;37.07;;;15.63;;
27209;SDS011;14721;42.668;23.386;2022-12-07T10:08:18;35.83;;;15.93;;
27209;SDS011;14721;42.668;23.386;2022-12-07T10:10:45;33.87;;;15.77;;
27209;SDS011;14721;42.668;23.386;2022-12-07T10:13:16;36.93;;;16.43;;
27209;SDS011;14721;42.668;23.386;2022-12-07T10:15:56;37.97;;;17.03;;
27209;SDS011;14721;42.668;23.386;2022-12-07T10:18:27;32.73;;;15.93;;
27209;SDS011;14721;42.668;23.386;2022-12-07T10:21:04;31.77;;;15.67;;
27209;SDS011;14721;42.668;23.386;2022-12-07T10:23:29;31.03;;;14.77;;
27209;SDS011;14721;42.668;23.386;2022-12-07T10:25:56;35.67;;;15.33;;
27209;SDS011;14721;42.668;23.386;2022-12-07T10:33:34;28.50;;;13.43;;
27209;SDS011;14721;42.668;23.386;2022-12-07T10:36:01;33.57;;;14.43;;
27209;SDS011;14721;42.668;23.386;2022-12-07T10:39:11;34.03;;;14.53;;
27209;SDS011;14721;42.668;23.386;2022-12-07T10:41:57;29.90;;;14.40;;
27209;SDS011;14721;42.668;23.386;2022-12-07T10:44:29;39.13;;;14.07;;
27209;SDS011;14721;42.668;23.386;2022-12-07T10:47:00;26.27;;;13.20;;
27209;SDS011;14721;42.668;23.386;2022-12-07T10:49:40;32.90;;;15.20;;
27209;SDS011;14721;42.668;23.386;2022-12-07T10:57:48;32.03;;;13.57;;
27209;SDS011;14721;42.668;23.386;2022-12-07T11:00:43;28.37;;;13.23;;
27209;SDS011;14721;42.668;23.386;2022-12-07T11:11:42;28.53;;;12.70;;
27209;SDS011;14721;42.668;23.386;2022-12-07T11:14:28;40.03;;;12.13;;
27209;SDS011;14721;42.668;23.386;2022-12-07T11:17:09;23.03;;;10.33;;
27209;SDS011;14721;42.668;23.386;2022-12-07T11:25:02;14.03;;;6.73;;
27209;SDS011;14721;42.668;23.386;2022-12-07T11:28:02;15.70;;;6.47;;
27209;SDS011;14721;42.668;23.386;2022-12-07T11:30:54;17.27;;;7.67;;
27209;SDS011;14721;42.668;23.386;2022-12-07T11:33:43;18.57;;;7.80;;
27209;SDS011;14721;42.668;23.386;2022-12-07T11:36:29;15.63;;;7.80;;
27209;SDS011;14721;42.668;23.386;2022-12-07T11:41:46;14.73;;;7.50;;
27209;SDS011;14721;42.668;23.386;2022-12-07T11:49:44;17.70;;;8.13;;
27209;SDS011;14721;42.668;23.386;2022-12-07T11:58:00;20.70;;;10.37;;
27209;SDS011;14721;42.668;23.386;2022-12-07T12:00:33;19.20;;;8.57;;
27209;SDS011;14721;42.668;23.386;2022-12-07T12:03:09;21.43;;;9.13;;
27209;SDS011;14721;42.668;23.386;2022-12-07T12:05:38;20.37;;;8.93;;
27209;SDS011;14721;42.668;23.386;2022-12-07T12:08:16;18.83;;;9.07;;
27209;SDS011;14721;42.668;23.386;2022-12-07T12:10:55;23.33;;;9.87;;
27209;SDS011;14721;42.668;23.386;2022-12-07T12:14:16;22.10;;;9.97;;
27209;SDS011;14721;42.668;23.386;2022-12-07T12:19:42;21.83;;;10.00;;
27209;SDS011;14721;42.668;23.386;2022-12-07T12:24:37;23.67;;;10.60;;
27209;SDS011;14721;42.668;23.386;2022-12-07T12:27:06;20.53;;;9.73;;
27209;SDS011;14721;42.668;23.386;2022-12-07T12:29:42;19.97;;;9.53;;
27209;SDS011;14721;42.668;23.386;2022-12-07T12:32:19;21.70;;;9.50;;
27209;SDS011;14721;42.668;23.386;2022-12-07T12:37:45;21.77;;;10.20;;
27209;SDS011;14721;42.668;23.386;2022-12-07T12:42:52;23.33;;;9.80;;
27209;SDS011;14721;42.668;23.386;2022-12-07T12:50:48;25.67;;;10.07;;
27209;SDS011;14721;42.668;23.386;2022-12-07T12:58:26;20.03;;;8.63;;
27209;SDS011;14721;42.668;23.386;2022-12-07T13:06:53;19.57;;;7.37;;
27209;SDS011;14721;42.668;23.386;2022-12-07T13:09:33;17.20;;;7.77;;
27209;SDS011;14721;42.668;23.386;2022-12-07T13:12:04;16.10;;;7.37;;
27209;SDS011;14721;42.668;23.386;2022-12-07T13:20:00;18.37;;;8.33;;
27209;SDS011;14721;42.668;23.386;2022-12-07T13:24:59;25.27;;;7.83;;
27209;SDS011;14721;42.668;23.386;2022-12-07T13:27:29;26.70;;;9.27;;
27209;SDS011;14721;42.668;23.386;2022-12-07T13:29:56;20.70;;;7.97;;
27209;SDS011;14721;42.668;23.386;2022-12-07T13:32:26;22.20;;;8.13;;
27209;SDS011;14721;42.668;23.386;2022-12-07T13:34:54;20.17;;;8.57;;
27209;SDS011;14721;42.668;23.386;2022-12-07T13:37:27;26.90;;;9.13;;
27209;SDS011;14721;42.668;23.386;2022-12-07T13:39:54;17.10;;;8.83;;
27209;SDS011;14721;42.668;23.386;2022-12-07T13:42:44;25.43;;;9.40;;
27209;SDS011;14721;42.668;23.386;2022-12-07T13:45:29;23.67;;;8.90;;
27209;SDS011;14721;42.668;23.386;2022-12-07T13:48:32;22.33;;;9.30;;
27209;SDS011;14721;42.668;23.386;2022-12-07T13:51:16;21.57;;;7.97;;
27209;SDS011;14721;42.668;23.386;2022-12-07T13:53:56;24.47;;;9.87;;
27209;SDS011;14721;42.668;23.386;2022-12-07T13:56:27;19.63;;;9.47;;
27209;SDS011;14721;42.668;23.386;2022-12-07T13:58:58;21.90;;;8.67;;
27209;SDS011;14721;42.668;23.386;2022-12-07T14:01:24;26.10;;;9.17;;
27209;SDS011;14721;42.668;23.386;2022-12-07T14:03:50;22.90;;;9.40;;
27209;SDS011;14721;42.668;23.386;2022-12-07T14:06:19;20.53;;;8.30;;
27209;SDS011;14721;42.668;23.386;2022-12-07T14:09:37;20.97;;;8.27;;
27209;SDS011;14721;42.668;23.386;2022-12-07T14:11:47;19.83;;;8.10;;
27209;SDS011;14721;42.668;23.386;2022-12-07T14:14:16;22.53;;;8.90;;
27209;SDS011;14721;42.668;23.386;2022-12-07T14:16:56;20.33;;;8.93;;
27209;SDS011;14721;42.668;23.386;2022-12-07T14:27:40;26.63;;;10.83;;
27209;SDS011;14721;42.668;23.386;2022-12-07T14:30:17;30.43;;;10.07;;
27209;SDS011;14721;42.668;23.386;2022-12-07T14:32:43;27.83;;;11.03;;
27209;SDS011;14721;42.668;23.386;2022-12-07T14:35:14;24.57;;;11.17;;
27209;SDS011;14721;42.668;23.386;2022-12-07T14:37:45;29.87;;;9.73;;
27209;SDS011;14721;42.668;23.386;2022-12-07T14:40:33;25.10;;;10.67;;
27209;SDS011;14721;42.668;23.386;2022-12-07T14:43:02;29.93;;;9.23;;
27209;SDS011;14721;42.668;23.386;2022-12-07T14:45:30;35.17;;;10.43;;
27209;SDS011;14721;42.668;23.386;2022-12-07T14:48:01;31.40;;;10.73;;
27209;SDS011;14721;42.668;23.386;2022-12-07T14:50:27;33.87;;;11.83;;
27209;SDS011;14721;42.668;23.386;2022-12-07T14:52:58;30.33;;;10.17;;
27209;SDS011;14721;42.668;23.386;2022-12-07T14:55:29;30.73;;;11.23;;
27209;SDS011;14721;42.668;23.386;2022-12-07T14:57:57;24.47;;;11.33;;
27209;SDS011;14721;42.668;23.386;2022-12-07T15:00:25;34.77;;;12.07;;
27209;SDS011;14721;42.668;23.386;2022-12-07T15:02:54;33.27;;;11.73;;
27209;SDS011;14721;42.668;23.386;2022-12-07T15:05:22;27.67;;;10.23;;
27209;SDS011;14721;42.668;23.386;2022-12-07T15:07:48;25.70;;;9.73;;
27209;SDS011;14721;42.668;23.386;2022-12-07T15:10:22;29.43;;;11.03;;
27209;SDS011;14721;42.668;23.386;2022-12-07T15:12:50;27.13;;;11.20;;
27209;SDS011;14721;42.668;23.386;2022-12-07T15:15:16;28.67;;;11.53;;
27209;SDS011;14721;42.668;23.386;2022-12-07T15:17:42;22.53;;;10.70;;
27209;SDS011;14721;42.668;23.386;2022-12-07T15:20:11;34.80;;;12.40;;
27209;SDS011;14721;42.668;23.386;2022-12-07T15:22:39;27.37;;;11.23;;
27209;SDS011;14721;42.668;23.386;2022-12-07T15:25:05;36.00;;;12.40;;
27209;SDS011;14721;42.668;23.386;2022-12-07T15:27:31;40.60;;;13.57;;
27209;SDS011;14721;42.668;23.386;2022-12-07T15:29:57;29.80;;;11.10;;
27209;SDS011;14721;42.668;23.386;2022-12-07T15:32:24;38.30;;;12.03;;
27209;SDS011;14721;42.668;23.386;2022-12-07T15:34:51;31.97;;;12.10;;
27209;SDS011;14721;42.668;23.386;2022-12-07T15:37:17;38.97;;;11.87;;
27209;SDS011;14721;42.668;23.386;2022-12-07T15:39:45;34.73;;;12.67;;
27209;SDS011;14721;42.668;23.386;2022-12-07T15:42:11;32.80;;;11.77;;
27209;SDS011;14721;42.668;23.386;2022-12-07T15:44:41;34.67;;;13.10;;
27209;SDS011;14721;42.668;23.386;2022-12-07T15:47:25;33.90;;;10.67;;
27209;SDS011;14721;42.668;23.386;2022-12-07T15:49:51;41.97;;;13.90;;
27209;SDS011;14721;42.668;23.386;2022-12-07T15:52:17;34.13;;;11.80;;
27209;SDS011;14721;42.668;23.386;2022-12-07T15:54:44;31.57;;;11.67;;
27209;SDS011;14721;42.668;23.386;2022-12-07T15:57:09;47.33;;;13.57;;
27209;SDS011;14721;42.668;23.386;2022-12-07T15:59:35;48.40;;;16.37;;
27209;SDS011;14721;42.668;23.386;2022-12-07T16:02:00;48.43;;;13.47;;
27209;SDS011;14721;42.668;23.386;2022-12-07T16:04:27;38.97;;;15.27;;
27209;SDS011;14721;42.668;23.386;2022-12-07T16:06:54;39.17;;;14.70;;
27209;SDS011;14721;42.668;23.386;2022-12-07T16:09:22;35.37;;;14.37;;
27209;SDS011;14721;42.668;23.386;2022-12-07T16:11:47;37.07;;;14.30;;
27209;SDS011;14721;42.668;23.386;2022-12-07T16:14:16;35.57;;;15.23;;
27209;SDS011;14721;42.668;23.386;2022-12-07T16:16:41;42.43;;;14.37;;
27209;SDS011;14721;42.668;23.386;2022-12-07T16:19:08;46.07;;;15.37;;
27209;SDS011;14721;42.668;23.386;2022-12-07T16:21:34;33.77;;;15.23;;
27209;SDS011;14721;42.668;23.386;2022-12-07T16:24:00;36.73;;;12.70;;
27209;SDS011;14721;42.668;23.386;2022-12-07T16:26:26;34.70;;;14.07;;
27209;SDS011;14721;42.668;23.386;2022-12-07T16:28:52;36.07;;;13.37;;
27209;SDS011;14721;42.668;23.386;2022-12-07T16:31:20;42.83;;;15.60;;
27209;SDS011;14721;42.668;23.386;2022-12-07T16:33:47;46.00;;;14.43;;
27209;SDS011;14721;42.668;23.386;2022-12-07T16:36:14;36.20;;;13.43;;
27209;SDS011;14721;42.668;23.386;2022-12-07T16:38:43;42.50;;;13.63;;